Accueil
METAR-TAF:

METAR-TAF

Aéroports :

Nouakchott, Mauritanie

Aéroport international de Nouakchott-Oumtounsy

latitude: 18-18-36N, longitude: 015-58-11W, altitude: 3 m

Observation

Le bulletin a été fait il y a 44 minutes, à 21:30 UTC
Vent 7 kt de ouest/nord-ouest
Température 17°C
Humidité 82%
Pression 1008 hPa
Visibilité 10 km ou plus
pas de nuages en-dessous de 1500 mètres et pas de cumulonimbus.

METAR: GQNO 222130Z 30007KT CAVOK 17/14 Q1008 NOSIG

Heure: 22:14 (22:14 UTC)

Prévision

Le bulletin a été fait il y a 5 heures et 4 minutes, à 17:10 UTC
Prévision valable du 22 à 18 UTC au 23 à 24 UTC
Vent 12 kt de ouest/nord-ouest
Visibilité: 9000 m
Evoluant progressivement
du 22 à 22 UTC au 23 à 02 UTC
Nuages fragmentés à une hauteur de 800 ft
Evoluant progressivement
du 23 à 07 UTC au 23 à 09 UTC
Nuages épars à une hauteur de 1000 ft

TAF: GQNO 221710Z 2218/2324 30012KT 9000 NSC BECMG 2222/2302 BKN008 BECMG 2307/2309 SCT010

Observations et prévisions météorologiques de plus de 4000 aéroports (messages METAR et TAF).

Les stations disponibles sont représentées par des disques jaunes et rouges sur la carte.

Passer la souris dessus pour voir le nom de la station.

Cliquer dessus pour voir les observations et prévisions météorologiques.

Pour changer de carte: cliquez sur les boutons verts avec une croix noire pour zoomer, sur le bouton vert avec un tiret pour effectuer un zoom arrière, ou sur les flèches vertes pour les cartes adjacentes.


METAR-TAF: